sensor_id;sensor_type;location;lat;lon;timestamp;temperature;humidity
44843;DHT22;31884;52.538;13.820;2023-11-19T00:02:07;3.90;99.90
44843;DHT22;31884;52.538;13.820;2023-11-19T00:04:36;3.90;99.90
44843;DHT22;31884;52.538;13.820;2023-11-19T00:07:03;3.90;99.90
44843;DHT22;31884;52.538;13.820;2023-11-19T00:09:30;3.80;99.90
44843;DHT22;31884;52.538;13.820;2023-11-19T00:11:56;3.80;99.90
44843;DHT22;31884;52.538;13.820;2023-11-19T00:14:23;3.80;99.90
44843;DHT22;31884;52.538;13.820;2023-11-19T00:16:49;3.90;99.90
44843;DHT22;31884;52.538;13.820;2023-11-19T00:19:16;3.80;99.90
44843;DHT22;31884;52.538;13.820;2023-11-19T00:21:42;3.80;99.90
44843;DHT22;31884;52.538;13.820;2023-11-19T00:24:08;3.80;99.90
44843;DHT22;31884;52.538;13.820;2023-11-19T00:26:33;3.80;99.90
44843;DHT22;31884;52.538;13.820;2023-11-19T00:28:59;3.80;99.90
44843;DHT22;31884;52.538;13.820;2023-11-19T00:31:25;3.80;99.90
44843;DHT22;31884;52.538;13.820;2023-11-19T00:33:53;3.80;99.90
44843;DHT22;31884;52.538;13.820;2023-11-19T00:36:19;3.80;99.90
44843;DHT22;31884;52.538;13.820;2023-11-19T00:38:44;3.80;99.90
44843;DHT22;31884;52.538;13.820;2023-11-19T00:41:10;3.80;99.90
44843;DHT22;31884;52.538;13.820;2023-11-19T00:43:35;3.80;99.90
44843;DHT22;31884;52.538;13.820;2023-11-19T00:46:01;3.80;99.90
44843;DHT22;31884;52.538;13.820;2023-11-19T00:48:29;3.80;99.90
44843;DHT22;31884;52.538;13.820;2023-11-19T00:50:55;3.80;99.90
44843;DHT22;31884;52.538;13.820;2023-11-19T00:53:20;3.80;99.90
44843;DHT22;31884;52.538;13.820;2023-11-19T00:55:46;3.80;99.90
44843;DHT22;31884;52.538;13.820;2023-11-19T00:58:11;3.80;99.90
44843;DHT22;31884;52.538;13.820;2023-11-19T01:00:36;3.80;99.90
44843;DHT22;31884;52.538;13.820;2023-11-19T01:03:02;3.80;99.90
44843;DHT22;31884;52.538;13.820;2023-11-19T01:05:27;3.80;99.90
44843;DHT22;31884;52.538;13.820;2023-11-19T01:07:54;3.80;99.90
44843;DHT22;31884;52.538;13.820;2023-11-19T01:10:20;3.80;99.90
44843;DHT22;31884;52.538;13.820;2023-11-19T01:12:45;3.80;99.90
44843;DHT22;31884;52.538;13.820;2023-11-19T01:15:11;3.80;99.90
44843;DHT22;31884;52.538;13.820;2023-11-19T01:17:38;3.80;99.90
44843;DHT22;31884;52.538;13.820;2023-11-19T01:20:04;3.80;99.90
44843;DHT22;31884;52.538;13.820;2023-11-19T01:22:31;3.80;99.90
44843;DHT22;31884;52.538;13.820;2023-11-19T01:24:57;3.80;99.90
44843;DHT22;31884;52.538;13.820;2023-11-19T01:27:23;3.80;99.90
44843;DHT22;31884;52.538;13.820;2023-11-19T01:29:49;3.80;99.90
44843;DHT22;31884;52.538;13.820;2023-11-19T01:32:15;3.80;99.90
44843;DHT22;31884;52.538;13.820;2023-11-19T01:34:41;3.80;99.90
44843;DHT22;31884;52.538;13.820;2023-11-19T01:37:06;3.80;99.90
44843;DHT22;31884;52.538;13.820;2023-11-19T01:39:34;3.80;99.90
44843;DHT22;31884;52.538;13.820;2023-11-19T01:42:00;3.80;99.90
44843;DHT22;31884;52.538;13.820;2023-11-19T01:44:25;3.80;99.90
44843;DHT22;31884;52.538;13.820;2023-11-19T01:46:51;3.80;99.90
44843;DHT22;31884;52.538;13.820;2023-11-19T01:49:18;3.80;99.90
44843;DHT22;31884;52.538;13.820;2023-11-19T01:51:44;3.90;99.90
44843;DHT22;31884;52.538;13.820;2023-11-19T01:54:11;3.80;99.90
44843;DHT22;31884;52.538;13.820;2023-11-19T01:56:37;3.90;99.90
44843;DHT22;31884;52.538;13.820;2023-11-19T01:59:06;3.90;99.90
44843;DHT22;31884;52.538;13.820;2023-11-19T02:01:32;3.90;99.90
44843;DHT22;31884;52.538;13.820;2023-11-19T02:04:00;3.90;99.90
44843;DHT22;31884;52.538;13.820;2023-11-19T02:06:27;3.90;99.90
44843;DHT22;31884;52.538;13.820;2023-11-19T02:08:53;3.90;99.90
44843;DHT22;31884;52.538;13.820;2023-11-19T02:11:19;3.90;99.90
44843;DHT22;31884;52.538;13.820;2023-11-19T02:13:44;3.90;99.90
44843;DHT22;31884;52.538;13.820;2023-11-19T02:16:10;3.90;99.90
44843;DHT22;31884;52.538;13.820;2023-11-19T02:18:36;3.90;99.90
44843;DHT22;31884;52.538;13.820;2023-11-19T02:21:01;3.90;99.90
44843;DHT22;31884;52.538;13.820;2023-11-19T02:23:28;4.00;99.90
44843;DHT22;31884;52.538;13.820;2023-11-19T02:26:17;4.00;99.90
44843;DHT22;31884;52.538;13.820;2023-11-19T02:28:43;4.00;99.90
44843;DHT22;31884;52.538;13.820;2023-11-19T02:31:10;4.00;99.90
44843;DHT22;31884;52.538;13.820;2023-11-19T02:33:39;4.00;99.90
44843;DHT22;31884;52.538;13.820;2023-11-19T02:36:05;4.00;99.90
44843;DHT22;31884;52.538;13.820;2023-11-19T02:38:32;4.00;99.90
44843;DHT22;31884;52.538;13.820;2023-11-19T02:40:58;4.10;99.90
44843;DHT22;31884;52.538;13.820;2023-11-19T02:43:23;4.00;99.90
44843;DHT22;31884;52.538;13.820;2023-11-19T02:45:50;4.00;99.90
44843;DHT22;31884;52.538;13.820;2023-11-19T02:48:16;4.00;99.90
44843;DHT22;31884;52.538;13.820;2023-11-19T02:50:44;4.00;99.90
44843;DHT22;31884;52.538;13.820;2023-11-19T02:53:10;4.00;99.90
44843;DHT22;31884;52.538;13.820;2023-11-19T02:55:35;4.00;99.90
44843;DHT22;31884;52.538;13.820;2023-11-19T02:58:04;4.00;99.90
44843;DHT22;31884;52.538;13.820;2023-11-19T03:00:39;4.00;99.90
44843;DHT22;31884;52.538;13.820;2023-11-19T03:03:13;4.00;99.90
44843;DHT22;31884;52.538;13.820;2023-11-19T03:05:49;4.00;99.90
44843;DHT22;31884;52.538;13.820;2023-11-19T03:08:15;4.00;99.90
44843;DHT22;31884;52.538;13.820;2023-11-19T03:10:41;4.00;99.90
44843;DHT22;31884;52.538;13.820;2023-11-19T03:13:11;4.00;99.90
44843;DHT22;31884;52.538;13.820;2023-11-19T03:15:39;4.00;99.90
44843;DHT22;31884;52.538;13.820;2023-11-19T03:18:04;4.00;99.90
44843;DHT22;31884;52.538;13.820;2023-11-19T03:20:30;4.10;99.90
44843;DHT22;31884;52.538;13.820;2023-11-19T03:22:56;4.10;99.90
44843;DHT22;31884;52.538;13.820;2023-11-19T03:25:25;4.10;99.90
44843;DHT22;31884;52.538;13.820;2023-11-19T03:27:51;4.10;99.90
44843;DHT22;31884;52.538;13.820;2023-11-19T03:30:16;4.10;99.90
44843;DHT22;31884;52.538;13.820;2023-11-19T03:32:43;4.10;99.90
44843;DHT22;31884;52.538;13.820;2023-11-19T03:35:08;4.10;99.90
44843;DHT22;31884;52.538;13.820;2023-11-19T03:37:34;4.10;99.90
44843;DHT22;31884;52.538;13.820;2023-11-19T03:40:01;4.20;99.90
44843;DHT22;31884;52.538;13.820;2023-11-19T03:42:26;4.20;99.90
44843;DHT22;31884;52.538;13.820;2023-11-19T03:44:53;4.20;99.90
44843;DHT22;31884;52.538;13.820;2023-11-19T03:47:19;4.20;99.90
44843;DHT22;31884;52.538;13.820;2023-11-19T03:49:51;4.30;99.90
44843;DHT22;31884;52.538;13.820;2023-11-19T03:52:17;4.30;99.90
44843;DHT22;31884;52.538;13.820;2023-11-19T03:54:44;4.30;99.90
44843;DHT22;31884;52.538;13.820;2023-11-19T03:57:09;4.30;99.90
44843;DHT22;31884;52.538;13.820;2023-11-19T03:59:39;4.30;99.90
44843;DHT22;31884;52.538;13.820;2023-11-19T04:02:04;4.30;99.90
44843;DHT22;31884;52.538;13.820;2023-11-19T04:04:30;4.40;99.90
44843;DHT22;31884;52.538;13.820;2023-11-19T04:06:56;4.30;99.90
44843;DHT22;31884;52.538;13.820;2023-11-19T04:09:21;4.40;99.90
44843;DHT22;31884;52.538;13.820;2023-11-19T04:11:47;4.40;99.90
44843;DHT22;31884;52.538;13.820;2023-11-19T04:14:13;4.40;99.90
44843;DHT22;31884;52.538;13.820;2023-11-19T04:16:39;4.40;99.90
44843;DHT22;31884;52.538;13.820;2023-11-19T04:19:05;4.30;99.90
44843;DHT22;31884;52.538;13.820;2023-11-19T04:21:32;4.30;99.90
44843;DHT22;31884;52.538;13.820;2023-11-19T04:23:57;4.30;99.90
44843;DHT22;31884;52.538;13.820;2023-11-19T04:26:23;4.30;99.90
44843;DHT22;31884;52.538;13.820;2023-11-19T04:28:48;4.30;99.90
44843;DHT22;31884;52.538;13.820;2023-11-19T04:31:15;4.30;99.90
44843;DHT22;31884;52.538;13.820;2023-11-19T04:33:41;4.30;99.90
44843;DHT22;31884;52.538;13.820;2023-11-19T04:36:07;4.30;99.90
44843;DHT22;31884;52.538;13.820;2023-11-19T04:38:33;4.30;99.90
44843;DHT22;31884;52.538;13.820;2023-11-19T04:40:58;4.30;99.90
44843;DHT22;31884;52.538;13.820;2023-11-19T04:43:24;4.30;99.90
44843;DHT22;31884;52.538;13.820;2023-11-19T04:45:49;4.30;99.90
44843;DHT22;31884;52.538;13.820;2023-11-19T04:48:15;4.30;99.90
44843;DHT22;31884;52.538;13.820;2023-11-19T04:50:40;4.20;99.90
44843;DHT22;31884;52.538;13.820;2023-11-19T04:53:06;4.20;99.90
44843;DHT22;31884;52.538;13.820;2023-11-19T04:55:31;4.20;99.90
44843;DHT22;31884;52.538;13.820;2023-11-19T04:57:57;4.20;99.90
44843;DHT22;31884;52.538;13.820;2023-11-19T05:00:22;4.20;99.90
44843;DHT22;31884;52.538;13.820;2023-11-19T05:02:48;4.20;99.90
44843;DHT22;31884;52.538;13.820;2023-11-19T05:05:15;4.20;99.90
44843;DHT22;31884;52.538;13.820;2023-11-19T05:07:41;4.20;99.90
44843;DHT22;31884;52.538;13.820;2023-11-19T05:10:07;4.20;99.90
44843;DHT22;31884;52.538;13.820;2023-11-19T05:12:33;4.20;99.90
44843;DHT22;31884;52.538;13.820;2023-11-19T05:14:59;4.20;99.90
44843;DHT22;31884;52.538;13.820;2023-11-19T05:17:25;4.20;99.90
44843;DHT22;31884;52.538;13.820;2023-11-19T05:19:51;4.20;99.90
44843;DHT22;31884;52.538;13.820;2023-11-19T05:22:17;4.20;99.90
44843;DHT22;31884;52.538;13.820;2023-11-19T05:24:42;4.20;99.90
44843;DHT22;31884;52.538;13.820;2023-11-19T05:27:08;4.20;99.90
44843;DHT22;31884;52.538;13.820;2023-11-19T05:29:34;4.20;99.90
44843;DHT22;31884;52.538;13.820;2023-11-19T05:31:59;4.20;99.90
44843;DHT22;31884;52.538;13.820;2023-11-19T05:34:25;4.10;99.90
44843;DHT22;31884;52.538;13.820;2023-11-19T05:36:50;4.10;99.90
44843;DHT22;31884;52.538;13.820;2023-11-19T05:39:16;4.10;99.90
44843;DHT22;31884;52.538;13.820;2023-11-19T05:41:44;4.10;99.90
44843;DHT22;31884;52.538;13.820;2023-11-19T05:44:09;4.10;99.90
44843;DHT22;31884;52.538;13.820;2023-11-19T05:46:35;4.10;99.90
44843;DHT22;31884;52.538;13.820;2023-11-19T05:49:05;4.10;99.90
44843;DHT22;31884;52.538;13.820;2023-11-19T05:51:31;4.10;99.90
44843;DHT22;31884;52.538;13.820;2023-11-19T05:53:56;4.10;99.90
44843;DHT22;31884;52.538;13.820;2023-11-19T05:56:22;4.10;99.90
44843;DHT22;31884;52.538;13.820;2023-11-19T05:58:48;4.10;99.90
44843;DHT22;31884;52.538;13.820;2023-11-19T06:01:14;4.10;99.90
44843;DHT22;31884;52.538;13.820;2023-11-19T06:03:40;4.10;99.90
44843;DHT22;31884;52.538;13.820;2023-11-19T06:06:06;4.10;99.90
44843;DHT22;31884;52.538;13.820;2023-11-19T06:08:31;4.10;99.90
44843;DHT22;31884;52.538;13.820;2023-11-19T06:10:57;4.10;99.90
44843;DHT22;31884;52.538;13.820;2023-11-19T06:13:23;4.10;99.90
44843;DHT22;31884;52.538;13.820;2023-11-19T06:15:49;4.10;99.90
44843;DHT22;31884;52.538;13.820;2023-11-19T06:18:16;4.10;99.90
44843;DHT22;31884;52.538;13.820;2023-11-19T06:20:41;4.10;99.90
44843;DHT22;31884;52.538;13.820;2023-11-19T06:23:07;4.10;99.90
44843;DHT22;31884;52.538;13.820;2023-11-19T06:25:32;4.10;99.90
44843;DHT22;31884;52.538;13.820;2023-11-19T06:28:00;4.10;99.90
44843;DHT22;31884;52.538;13.820;2023-11-19T06:30:26;4.10;99.90
44843;DHT22;31884;52.538;13.820;2023-11-19T06:32:53;4.10;99.90
44843;DHT22;31884;52.538;13.820;2023-11-19T06:35:19;4.10;99.90
44843;DHT22;31884;52.538;13.820;2023-11-19T06:37:44;4.20;99.90
44843;DHT22;31884;52.538;13.820;2023-11-19T06:40:10;4.20;99.90
44843;DHT22;31884;52.538;13.820;2023-11-19T06:42:38;4.20;99.90
44843;DHT22;31884;52.538;13.820;2023-11-19T06:45:04;4.20;99.90
44843;DHT22;31884;52.538;13.820;2023-11-19T06:47:31;4.30;99.90
44843;DHT22;31884;52.538;13.820;2023-11-19T06:49:58;4.20;99.90
44843;DHT22;31884;52.538;13.820;2023-11-19T06:52:23;4.30;99.90
44843;DHT22;31884;52.538;13.820;2023-11-19T06:54:49;4.20;99.90
44843;DHT22;31884;52.538;13.820;2023-11-19T06:57:15;4.30;99.90
44843;DHT22;31884;52.538;13.820;2023-11-19T06:59:40;4.30;99.90
44843;DHT22;31884;52.538;13.820;2023-11-19T07:02:06;4.30;99.90
44843;DHT22;31884;52.538;13.820;2023-11-19T07:04:32;4.30;99.90
44843;DHT22;31884;52.538;13.820;2023-11-19T07:06:58;4.40;99.90
44843;DHT22;31884;52.538;13.820;2023-11-19T07:09:26;4.40;99.90
44843;DHT22;31884;52.538;13.820;2023-11-19T07:11:51;4.30;99.90
44843;DHT22;31884;52.538;13.820;2023-11-19T07:14:18;4.40;99.90
44843;DHT22;31884;52.538;13.820;2023-11-19T07:16:44;4.40;99.90
44843;DHT22;31884;52.538;13.820;2023-11-19T07:19:09;4.40;99.90
44843;DHT22;31884;52.538;13.820;2023-11-19T07:21:35;4.50;99.90
44843;DHT22;31884;52.538;13.820;2023-11-19T07:24:05;4.40;99.90
44843;DHT22;31884;52.538;13.820;2023-11-19T07:26:30;4.50;99.90
44843;DHT22;31884;52.538;13.820;2023-11-19T07:28:56;4.50;99.90
44843;DHT22;31884;52.538;13.820;2023-11-19T07:31:22;4.50;99.90
44843;DHT22;31884;52.538;13.820;2023-11-19T07:33:49;4.50;99.90
44843;DHT22;31884;52.538;13.820;2023-11-19T07:36:14;4.60;99.90
44843;DHT22;31884;52.538;13.820;2023-11-19T07:38:40;4.60;99.90
44843;DHT22;31884;52.538;13.820;2023-11-19T07:41:06;4.60;99.90
44843;DHT22;31884;52.538;13.820;2023-11-19T07:43:32;4.70;99.90
44843;DHT22;31884;52.538;13.820;2023-11-19T07:45:58;4.70;99.90
44843;DHT22;31884;52.538;13.820;2023-11-19T07:48:25;4.80;99.90
44843;DHT22;31884;52.538;13.820;2023-11-19T07:50:52;4.80;99.90
44843;DHT22;31884;52.538;13.820;2023-11-19T07:53:18;4.80;99.90
44843;DHT22;31884;52.538;13.820;2023-11-19T07:55:44;4.80;99.90
44843;DHT22;31884;52.538;13.820;2023-11-19T07:58:13;4.80;99.90
44843;DHT22;31884;52.538;13.820;2023-11-19T08:00:38;4.80;99.90
44843;DHT22;31884;52.538;13.820;2023-11-19T08:03:04;4.80;99.90
44843;DHT22;31884;52.538;13.820;2023-11-19T08:05:30;4.90;99.90
44843;DHT22;31884;52.538;13.820;2023-11-19T08:07:56;4.90;99.90
44843;DHT22;31884;52.538;13.820;2023-11-19T08:10:22;4.90;99.90
44843;DHT22;31884;52.538;13.820;2023-11-19T08:12:48;4.90;99.90
44843;DHT22;31884;52.538;13.820;2023-11-19T08:15:13;5.00;99.90
44843;DHT22;31884;52.538;13.820;2023-11-19T08:17:39;5.00;99.90
44843;DHT22;31884;52.538;13.820;2023-11-19T08:20:05;5.10;99.90
44843;DHT22;31884;52.538;13.820;2023-11-19T08:22:33;5.10;99.90
44843;DHT22;31884;52.538;13.820;2023-11-19T08:24:58;5.10;99.90
44843;DHT22;31884;52.538;13.820;2023-11-19T08:27:24;5.10;99.90
44843;DHT22;31884;52.538;13.820;2023-11-19T08:29:55;5.20;99.90
44843;DHT22;31884;52.538;13.820;2023-11-19T08:32:25;5.20;99.90
44843;DHT22;31884;52.538;13.820;2023-11-19T08:34:51;5.30;99.90
44843;DHT22;31884;52.538;13.820;2023-11-19T08:37:16;5.30;99.90
44843;DHT22;31884;52.538;13.820;2023-11-19T08:39:46;5.30;99.90
44843;DHT22;31884;52.538;13.820;2023-11-19T08:42:12;5.30;99.90
44843;DHT22;31884;52.538;13.820;2023-11-19T08:44:37;5.40;99.90
44843;DHT22;31884;52.538;13.820;2023-11-19T08:47:03;5.40;99.90
44843;DHT22;31884;52.538;13.820;2023-11-19T08:49:29;5.40;99.90
44843;DHT22;31884;52.538;13.820;2023-11-19T08:51:54;5.50;99.90
44843;DHT22;31884;52.538;13.820;2023-11-19T08:54:20;5.60;99.90
44843;DHT22;31884;52.538;13.820;2023-11-19T08:56:46;5.60;99.90
44843;DHT22;31884;52.538;13.820;2023-11-19T08:59:12;5.70;99.90
44843;DHT22;31884;52.538;13.820;2023-11-19T09:01:37;5.70;99.90
44843;DHT22;31884;52.538;13.820;2023-11-19T09:04:03;5.80;99.90
44843;DHT22;31884;52.538;13.820;2023-11-19T09:06:29;5.80;99.90
44843;DHT22;31884;52.538;13.820;2023-11-19T09:08:55;5.90;99.90
44843;DHT22;31884;52.538;13.820;2023-11-19T09:11:25;5.90;99.90
44843;DHT22;31884;52.538;13.820;2023-11-19T09:13:51;6.00;99.90
44843;DHT22;31884;52.538;13.820;2023-11-19T09:16:16;6.00;99.90
44843;DHT22;31884;52.538;13.820;2023-11-19T09:18:42;6.00;99.90
44843;DHT22;31884;52.538;13.820;2023-11-19T09:21:07;6.20;99.90
44843;DHT22;31884;52.538;13.820;2023-11-19T09:23:33;6.20;99.90
44843;DHT22;31884;52.538;13.820;2023-11-19T09:26:10;6.30;99.90
44843;DHT22;31884;52.538;13.820;2023-11-19T09:28:36;6.40;99.90
44843;DHT22;31884;52.538;13.820;2023-11-19T09:31:01;6.40;99.90
44843;DHT22;31884;52.538;13.820;2023-11-19T09:33:30;6.50;99.90
44843;DHT22;31884;52.538;13.820;2023-11-19T09:35:55;6.50;99.90
44843;DHT22;31884;52.538;13.820;2023-11-19T09:38:21;6.50;99.90
44843;DHT22;31884;52.538;13.820;2023-11-19T09:40:46;6.60;99.90
44843;DHT22;31884;52.538;13.820;2023-11-19T09:43:14;6.60;99.90
44843;DHT22;31884;52.538;13.820;2023-11-19T09:45:50;6.70;99.90
44843;DHT22;31884;52.538;13.820;2023-11-19T09:48:16;6.80;99.90
44843;DHT22;31884;52.538;13.820;2023-11-19T09:50:42;6.90;99.90
44843;DHT22;31884;52.538;13.820;2023-11-19T09:53:08;7.10;99.90
44843;DHT22;31884;52.538;13.820;2023-11-19T09:55:34;7.30;99.90
44843;DHT22;31884;52.538;13.820;2023-11-19T09:58:01;7.50;99.90
44843;DHT22;31884;52.538;13.820;2023-11-19T10:00:27;7.60;99.90
44843;DHT22;31884;52.538;13.820;2023-11-19T10:02:54;7.70;99.90
44843;DHT22;31884;52.538;13.820;2023-11-19T10:05:20;7.90;99.90
44843;DHT22;31884;52.538;13.820;2023-11-19T10:07:47;8.00;99.90
44843;DHT22;31884;52.538;13.820;2023-11-19T10:10:12;8.10;99.90
44843;DHT22;31884;52.538;13.820;2023-11-19T10:12:44;8.20;99.90
44843;DHT22;31884;52.538;13.820;2023-11-19T10:15:17;8.30;99.90
44843;DHT22;31884;52.538;13.820;2023-11-19T10:17:44;8.40;99.90
44843;DHT22;31884;52.538;13.820;2023-11-19T10:20:10;8.60;99.90
44843;DHT22;31884;52.538;13.820;2023-11-19T10:22:39;8.70;99.90
44843;DHT22;31884;52.538;13.820;2023-11-19T10:25:28;8.70;99.90
44843;DHT22;31884;52.538;13.820;2023-11-19T10:27:54;8.70;99.90
44843;DHT22;31884;52.538;13.820;2023-11-19T10:30:24;8.80;99.90
44843;DHT22;31884;52.538;13.820;2023-11-19T10:33:07;8.80;99.90
44843;DHT22;31884;52.538;13.820;2023-11-19T10:35:53;8.90;99.90
44843;DHT22;31884;52.538;13.820;2023-11-19T10:38:20;9.00;99.90
44843;DHT22;31884;52.538;13.820;2023-11-19T10:40:46;9.00;99.90
44843;DHT22;31884;52.538;13.820;2023-11-19T10:43:12;9.20;99.90
44843;DHT22;31884;52.538;13.820;2023-11-19T10:45:38;9.30;99.90
44843;DHT22;31884;52.538;13.820;2023-11-19T10:48:05;9.50;99.90
44843;DHT22;31884;52.538;13.820;2023-11-19T10:50:34;9.60;99.90
44843;DHT22;31884;52.538;13.820;2023-11-19T10:53:01;9.80;99.90
44843;DHT22;31884;52.538;13.820;2023-11-19T10:55:33;10.00;99.90
44843;DHT22;31884;52.538;13.820;2023-11-19T10:58:02;10.20;99.90
44843;DHT22;31884;52.538;13.820;2023-11-19T11:00:48;10.20;99.90
44843;DHT22;31884;52.538;13.820;2023-11-19T11:03:21;10.20;99.90
44843;DHT22;31884;52.538;13.820;2023-11-19T11:05:48;10.20;99.90
44843;DHT22;31884;52.538;13.820;2023-11-19T11:08:15;10.30;99.90
44843;DHT22;31884;52.538;13.820;2023-11-19T11:10:48;10.40;99.90
44843;DHT22;31884;52.538;13.820;2023-11-19T11:13:18;10.40;99.90
44843;DHT22;31884;52.538;13.820;2023-11-19T11:15:44;10.40;99.90
44843;DHT22;31884;52.538;13.820;2023-11-19T11:18:12;10.50;99.90
44843;DHT22;31884;52.538;13.820;2023-11-19T11:20:39;10.50;99.90
44843;DHT22;31884;52.538;13.820;2023-11-19T11:23:36;10.60;99.90
44843;DHT22;31884;52.538;13.820;2023-11-19T11:26:29;10.50;99.90
44843;DHT22;31884;52.538;13.820;2023-11-19T11:29:20;10.60;99.90
44843;DHT22;31884;52.538;13.820;2023-11-19T11:37:59;11.20;99.90
44843;DHT22;31884;52.538;13.820;2023-11-19T11:40:25;11.20;99.90
44843;DHT22;31884;52.538;13.820;2023-11-19T11:42:52;11.30;99.90
44843;DHT22;31884;52.538;13.820;2023-11-19T11:45:19;11.30;99.90
44843;DHT22;31884;52.538;13.820;2023-11-19T11:50:20;11.40;99.90
44843;DHT22;31884;52.538;13.820;2023-11-19T11:55:51;11.70;99.90
44843;DHT22;31884;52.538;13.820;2023-11-19T11:58:28;11.80;99.90
44843;DHT22;31884;52.538;13.820;2023-11-19T12:00:57;11.90;99.90
44843;DHT22;31884;52.538;13.820;2023-11-19T12:03:23;11.90;99.90
44843;DHT22;31884;52.538;13.820;2023-11-19T12:05:48;11.90;99.90
44843;DHT22;31884;52.538;13.820;2023-11-19T12:08:18;11.90;99.90
44843;DHT22;31884;52.538;13.820;2023-11-19T12:10:47;12.00;99.90
44843;DHT22;31884;52.538;13.820;2023-11-19T12:13:14;12.00;99.90
44843;DHT22;31884;52.538;13.820;2023-11-19T12:18:26;12.20;99.90
44843;DHT22;31884;52.538;13.820;2023-11-19T12:20:52;12.30;99.90
44843;DHT22;31884;52.538;13.820;2023-11-19T12:23:18;12.30;99.90
44843;DHT22;31884;52.538;13.820;2023-11-19T12:25:44;12.30;99.90
44843;DHT22;31884;52.538;13.820;2023-11-19T12:28:15;12.20;99.90
44843;DHT22;31884;52.538;13.820;2023-11-19T12:30:43;12.20;99.90
44843;DHT22;31884;52.538;13.820;2023-11-19T12:33:09;12.10;99.90
44843;DHT22;31884;52.538;13.820;2023-11-19T12:35:45;12.10;99.90
44843;DHT22;31884;52.538;13.820;2023-11-19T12:38:24;12.10;99.90
44843;DHT22;31884;52.538;13.820;2023-11-19T12:41:06;12.10;99.90
44843;DHT22;31884;52.538;13.820;2023-11-19T12:43:32;12.00;99.90
44843;DHT22;31884;52.538;13.820;2023-11-19T12:45:59;12.00;99.90
44843;DHT22;31884;52.538;13.820;2023-11-19T12:48:25;12.00;99.90
44843;DHT22;31884;52.538;13.820;2023-11-19T12:50:54;12.10;99.90
44843;DHT22;31884;52.538;13.820;2023-11-19T12:53:22;12.00;99.90
44843;DHT22;31884;52.538;13.820;2023-11-19T12:55:48;12.00;99.90
44843;DHT22;31884;52.538;13.820;2023-11-19T12:58:30;12.00;99.90
44843;DHT22;31884;52.538;13.820;2023-11-19T13:01:03;12.00;99.90
44843;DHT22;31884;52.538;13.820;2023-11-19T13:03:30;12.00;99.90
44843;DHT22;31884;52.538;13.820;2023-11-19T13:06:10;12.00;99.90
44843;DHT22;31884;52.538;13.820;2023-11-19T13:08:45;12.00;99.90
44843;DHT22;31884;52.538;13.820;2023-11-19T13:11:13;11.90;99.90
44843;DHT22;31884;52.538;13.820;2023-11-19T13:13:55;11.80;99.90
44843;DHT22;31884;52.538;13.820;2023-11-19T13:16:21;11.80;99.90
44843;DHT22;31884;52.538;13.820;2023-11-19T13:18:47;11.70;99.90
44843;DHT22;31884;52.538;13.820;2023-11-19T13:21:13;11.60;99.90
44843;DHT22;31884;52.538;13.820;2023-11-19T13:23:38;11.60;99.90
44843;DHT22;31884;52.538;13.820;2023-11-19T13:26:04;11.60;99.90
44843;DHT22;31884;52.538;13.820;2023-11-19T13:28:29;11.50;99.90
44843;DHT22;31884;52.538;13.820;2023-11-19T13:30:55;11.50;99.90
44843;DHT22;31884;52.538;13.820;2023-11-19T13:33:20;11.40;99.90
44843;DHT22;31884;52.538;13.820;2023-11-19T13:35:46;11.30;99.90
44843;DHT22;31884;52.538;13.820;2023-11-19T13:38:11;11.20;99.90
44843;DHT22;31884;52.538;13.820;2023-11-19T13:40:37;11.10;99.90
44843;DHT22;31884;52.538;13.820;2023-11-19T13:43:04;11.10;99.90
44843;DHT22;31884;52.538;13.820;2023-11-19T13:45:29;11.00;99.90
44843;DHT22;31884;52.538;13.820;2023-11-19T13:47:55;11.00;99.90
44843;DHT22;31884;52.538;13.820;2023-11-19T13:50:20;11.00;99.90
44843;DHT22;31884;52.538;13.820;2023-11-19T13:52:48;11.00;99.90
44843;DHT22;31884;52.538;13.820;2023-11-19T13:55:14;11.00;99.90
44843;DHT22;31884;52.538;13.820;2023-11-19T13:57:40;11.00;99.90
44843;DHT22;31884;52.538;13.820;2023-11-19T14:00:07;11.00;99.90
44843;DHT22;31884;52.538;13.820;2023-11-19T14:02:41;11.00;99.90
44843;DHT22;31884;52.538;13.820;2023-11-19T14:05:07;11.00;99.90
44843;DHT22;31884;52.538;13.820;2023-11-19T14:07:33;11.00;99.90
44843;DHT22;31884;52.538;13.820;2023-11-19T14:09:59;11.10;99.90
44843;DHT22;31884;52.538;13.820;2023-11-19T14:12:24;11.10;99.90
44843;DHT22;31884;52.538;13.820;2023-11-19T14:14:50;11.10;99.90
44843;DHT22;31884;52.538;13.820;2023-11-19T14:17:15;11.10;99.90
44843;DHT22;31884;52.538;13.820;2023-11-19T14:19:44;11.10;99.90
44843;DHT22;31884;52.538;13.820;2023-11-19T14:22:10;11.10;99.90
44843;DHT22;31884;52.538;13.820;2023-11-19T14:24:35;11.10;99.90
44843;DHT22;31884;52.538;13.820;2023-11-19T14:27:01;11.10;99.90
44843;DHT22;31884;52.538;13.820;2023-11-19T14:29:27;11.10;99.90
44843;DHT22;31884;52.538;13.820;2023-11-19T14:31:55;11.10;99.90
44843;DHT22;31884;52.538;13.820;2023-11-19T14:34:20;11.10;99.90
44843;DHT22;31884;52.538;13.820;2023-11-19T14:36:46;11.10;99.90
44843;DHT22;31884;52.538;13.820;2023-11-19T14:39:12;11.10;99.90
44843;DHT22;31884;52.538;13.820;2023-11-19T14:41:38;11.10;99.90
44843;DHT22;31884;52.538;13.820;2023-11-19T14:44:04;11.10;99.90
44843;DHT22;31884;52.538;13.820;2023-11-19T14:46:30;11.10;99.90
44843;DHT22;31884;52.538;13.820;2023-11-19T14:48:55;11.10;99.90
44843;DHT22;31884;52.538;13.820;2023-11-19T14:51:21;11.10;99.90
44843;DHT22;31884;52.538;13.820;2023-11-19T14:53:46;11.00;99.90
44843;DHT22;31884;52.538;13.820;2023-11-19T14:56:12;11.00;99.90
44843;DHT22;31884;52.538;13.820;2023-11-19T14:58:38;11.00;99.90
44843;DHT22;31884;52.538;13.820;2023-11-19T15:01:04;11.00;99.90
44843;DHT22;31884;52.538;13.820;2023-11-19T15:03:30;11.00;99.90
44843;DHT22;31884;52.538;13.820;2023-11-19T15:05:56;11.00;99.90
44843;DHT22;31884;52.538;13.820;2023-11-19T15:08:22;11.00;99.90
44843;DHT22;31884;52.538;13.820;2023-11-19T15:10:47;11.00;99.90
44843;DHT22;31884;52.538;13.820;2023-11-19T15:13:13;11.00;99.90
44843;DHT22;31884;52.538;13.820;2023-11-19T15:15:38;11.00;99.90
44843;DHT22;31884;52.538;13.820;2023-11-19T15:18:04;11.00;99.90
44843;DHT22;31884;52.538;13.820;2023-11-19T15:20:30;11.00;99.90
44843;DHT22;31884;52.538;13.820;2023-11-19T15:22:57;11.00;99.90
44843;DHT22;31884;52.538;13.820;2023-11-19T15:25:22;11.00;99.90
44843;DHT22;31884;52.538;13.820;2023-11-19T15:27:48;11.00;99.90
44843;DHT22;31884;52.538;13.820;2023-11-19T15:30:14;11.00;99.90
44843;DHT22;31884;52.538;13.820;2023-11-19T15:32:41;11.00;99.90
44843;DHT22;31884;52.538;13.820;2023-11-19T15:35:08;11.00;99.90
44843;DHT22;31884;52.538;13.820;2023-11-19T15:37:33;11.00;99.90
44843;DHT22;31884;52.538;13.820;2023-11-19T15:40:00;11.00;99.90
44843;DHT22;31884;52.538;13.820;2023-11-19T15:42:25;11.00;99.90